createdAt,value
2019-01-24T00:01:23.275Z,39.50
2019-01-24T00:03:54.408Z,37.47
2019-01-24T00:06:23.860Z,37.20
2019-01-24T00:08:53.420Z,34.23
2019-01-24T00:11:23.473Z,37.90
2019-01-24T00:13:52.889Z,36.63
2019-01-24T00:16:22.847Z,37.00
2019-01-24T00:18:55.716Z,39.00
2019-01-24T00:21:25.595Z,38.13
2019-01-24T00:23:54.967Z,37.40
2019-01-24T00:26:25.350Z,36.70
2019-01-24T00:28:54.757Z,35.37
2019-01-24T00:31:24.149Z,35.37
2019-01-24T00:33:55.060Z,36.00
2019-01-24T00:36:24.501Z,35.90
2019-01-24T00:38:54.337Z,37.17
2019-01-24T00:41:24.477Z,35.70
2019-01-24T00:43:55.756Z,35.13
2019-01-24T00:46:25.116Z,38.17
2019-01-24T00:48:55.349Z,36.93
2019-01-24T00:51:25.081Z,37.63
2019-01-24T00:53:54.971Z,36.07
2019-01-24T00:56:24.748Z,38.20
2019-01-24T00:58:54.300Z,37.00
2019-01-24T01:01:24.024Z,38.67
2019-01-24T01:03:54.263Z,39.30
2019-01-24T01:06:23.625Z,37.63
2019-01-24T01:08:53.950Z,36.60
2019-01-24T01:11:24.289Z,38.07
2019-01-24T01:13:53.699Z,37.90
2019-01-24T01:16:23.155Z,38.03
2019-01-24T01:18:52.572Z,36.80
2019-01-24T01:21:22.380Z,39.50
2019-01-24T01:23:51.680Z,39.30
2019-01-24T01:26:21.162Z,35.87
2019-01-24T01:28:52.690Z,37.63
2019-01-24T01:31:22.088Z,41.38
2019-01-24T01:33:51.558Z,40.23
2019-01-24T01:36:22.090Z,40.43
2019-01-24T01:38:52.297Z,39.77
2019-01-24T01:41:25.872Z,37.50
2019-01-24T01:43:55.313Z,38.97
2019-01-24T01:46:25.632Z,37.80
2019-01-24T01:48:55.123Z,38.70
2019-01-24T01:51:25.252Z,37.00
2019-01-24T01:53:54.642Z,41.43
2019-01-24T01:56:24.188Z,41.37
2019-01-24T01:58:53.839Z,39.60
2019-01-24T02:01:23.510Z,38.44
2019-01-24T02:03:53.704Z,38.90
2019-01-24T02:06:24.196Z,37.75
2019-01-24T02:08:53.572Z,38.77
2019-01-24T02:11:23.636Z,36.63
2019-01-24T02:13:53.576Z,39.60
2019-01-24T02:16:23.353Z,39.23
2019-01-24T02:18:53.110Z,40.40
2019-01-24T02:21:26.811Z,43.20
2019-01-24T02:23:56.192Z,40.00
2019-01-24T02:26:31.078Z,39.60
2019-01-24T02:29:00.770Z,40.47
2019-01-24T02:31:31.334Z,40.90
2019-01-24T02:34:01.027Z,39.60
2019-01-24T02:36:32.859Z,39.83
2019-01-24T02:39:02.379Z,37.67
2019-01-24T02:41:32.867Z,39.20
2019-01-24T02:44:02.641Z,39.70
2019-01-24T02:46:32.014Z,37.30
2019-01-24T02:49:01.802Z,41.17
2019-01-24T02:51:31.185Z,40.05
2019-01-24T02:54:01.265Z,39.17
2019-01-24T02:56:32.850Z,39.07
2019-01-24T02:59:02.288Z,40.63
2019-01-24T03:01:32.514Z,40.70
2019-01-24T03:04:02.299Z,40.70
2019-01-24T03:06:32.099Z,41.83
2019-01-24T03:09:02.910Z,39.93
2019-01-24T03:11:33.257Z,40.60
2019-01-24T03:14:02.563Z,41.70
2019-01-24T03:16:32.161Z,38.00
2019-01-24T03:19:02.523Z,42.57
2019-01-24T03:21:31.890Z,41.10
2019-01-24T03:24:02.179Z,39.13
2019-01-24T03:26:32.057Z,40.43
2019-01-24T03:29:03.852Z,41.33
2019-01-24T03:31:34.035Z,39.43
2019-01-24T03:34:06.811Z,38.47
2019-01-24T03:36:40.011Z,40.50
2019-01-24T03:39:10.071Z,39.77
2019-01-24T03:41:44.058Z,40.60
2019-01-24T03:44:13.731Z,39.47
2019-01-24T03:46:43.131Z,39.80
2019-01-24T03:49:14.426Z,44.03
2019-01-24T03:51:44.303Z,38.70
2019-01-24T03:54:13.953Z,42.23
2019-01-24T03:56:45.205Z,42.50
2019-01-24T03:59:17.125Z,44.42
2019-01-24T04:01:47.642Z,39.37
2019-01-24T04:04:17.702Z,41.08
2019-01-24T04:06:47.537Z,42.83
2019-01-24T04:09:18.739Z,40.65
2019-01-24T04:11:49.203Z,41.40
2019-01-24T04:14:18.828Z,44.40
2019-01-24T04:16:49.767Z,42.10
2019-01-24T04:19:19.244Z,39.47
2019-01-24T04:21:48.642Z,41.00
2019-01-24T04:24:19.026Z,43.05
2019-01-24T04:26:50.682Z,43.00
2019-01-24T04:29:20.766Z,40.98
2019-01-24T04:31:50.253Z,41.48
2019-01-24T04:34:20.883Z,43.67
2019-01-24T04:36:52.684Z,42.85
2019-01-24T04:39:22.834Z,41.90
2019-01-24T04:41:53.278Z,42.03
2019-01-24T04:44:26.769Z,42.57
2019-01-24T04:46:56.766Z,47.08
2019-01-24T04:49:26.689Z,42.27
2019-01-24T04:52:00.171Z,39.90
2019-01-24T04:54:30.055Z,41.07
2019-01-24T04:56:59.947Z,41.50
2019-01-24T04:59:29.947Z,44.33
2019-01-24T05:01:59.416Z,46.58
2019-01-24T05:04:29.368Z,40.93
2019-01-24T05:07:01.171Z,38.40
2019-01-24T05:09:30.929Z,36.57
2019-01-24T05:12:00.449Z,36.80
2019-01-24T05:14:31.020Z,39.53
2019-01-24T05:17:02.528Z,34.07
2019-01-24T05:19:36.098Z,35.97
2019-01-24T05:22:06.268Z,31.73
2019-01-24T05:24:38.536Z,30.80
2019-01-24T05:27:08.229Z,34.23
2019-01-24T05:29:38.717Z,35.73
2019-01-24T05:32:08.103Z,31.60
2019-01-24T05:34:38.216Z,32.80
2019-01-24T05:37:07.953Z,33.20
2019-01-24T05:39:37.818Z,29.03
2019-01-24T05:42:07.362Z,29.52
2019-01-24T05:44:36.885Z,32.50
2019-01-24T05:47:06.322Z,29.60
2019-01-24T05:49:36.139Z,32.47
2019-01-24T05:52:05.564Z,29.50
2019-01-24T05:54:37.693Z,28.65
2019-01-24T05:57:09.671Z,29.35
2019-01-24T05:59:39.075Z,32.38
2019-01-24T06:02:08.473Z,29.10
2019-01-24T06:04:40.706Z,28.80
2019-01-24T06:07:12.905Z,31.85
2019-01-24T06:09:42.465Z,28.70
2019-01-24T06:12:12.948Z,30.87
2019-01-24T06:14:42.762Z,28.70
2019-01-24T06:17:13.332Z,28.52
2019-01-24T06:19:43.652Z,30.00
2019-01-24T06:22:13.441Z,30.60
2019-01-24T06:24:43.597Z,29.97
2019-01-24T06:27:13.156Z,30.27
2019-01-24T06:29:46.002Z,30.63
2019-01-24T06:32:17.508Z,30.75
2019-01-24T06:34:47.286Z,30.30
2019-01-24T06:37:20.014Z,29.05
2019-01-24T06:39:49.812Z,29.57
2019-01-24T06:42:19.236Z,30.08
2019-01-24T06:44:48.631Z,32.47
2019-01-24T06:47:20.227Z,33.73
2019-01-24T06:49:50.025Z,31.73
2019-01-24T06:52:19.423Z,34.80
2019-01-24T06:54:49.950Z,34.40
2019-01-24T06:57:20.885Z,36.40
2019-01-24T06:59:50.888Z,29.77
2019-01-24T07:02:20.629Z,33.67
2019-01-24T07:04:50.032Z,36.60
2019-01-24T07:07:19.700Z,32.17
2019-01-24T07:09:49.918Z,32.70
2019-01-24T07:12:19.699Z,35.37
2019-01-24T07:14:49.090Z,38.40
2019-01-24T07:17:18.794Z,38.40
2019-01-24T07:19:50.973Z,35.10
2019-01-24T07:22:21.380Z,33.50
2019-01-24T07:24:50.713Z,34.43
2019-01-24T07:27:24.728Z,35.73
2019-01-24T07:29:57.135Z,37.67
2019-01-24T07:32:26.605Z,34.33
2019-01-24T07:34:56.276Z,35.40
2019-01-24T07:37:25.948Z,35.00
2019-01-24T07:39:56.914Z,35.63
2019-01-24T07:42:27.656Z,35.70
2019-01-24T07:44:57.427Z,34.45
2019-01-24T07:47:28.706Z,39.90
2019-01-24T07:49:58.373Z,45.20
2019-01-24T07:52:27.730Z,37.50
2019-01-24T07:54:57.453Z,34.90
2019-01-24T07:57:27.033Z,34.35
2019-01-24T07:59:56.759Z,35.50
2019-01-24T08:02:26.152Z,33.13
2019-01-24T08:04:57.263Z,35.27
2019-01-24T08:07:26.562Z,35.77
2019-01-24T08:09:55.992Z,36.00
2019-01-24T08:12:26.854Z,35.73
2019-01-24T08:14:57.693Z,36.33
2019-01-24T08:17:27.764Z,36.77
2019-01-24T08:19:57.928Z,34.78
2019-01-24T08:22:28.203Z,35.37
2019-01-24T08:24:58.098Z,34.20
2019-01-24T08:27:27.972Z,32.70
2019-01-24T08:29:57.757Z,34.50
2019-01-24T08:32:27.591Z,32.90
2019-01-24T08:34:57.661Z,32.60
2019-01-24T08:37:30.536Z,33.13
2019-01-24T08:40:02.269Z,34.00
2019-01-24T08:42:32.955Z,33.87
2019-01-24T08:45:05.318Z,33.00
2019-01-24T08:47:34.773Z,33.88
2019-01-24T08:50:05.520Z,34.33
2019-01-24T08:52:35.257Z,34.03
2019-01-24T08:55:09.719Z,34.93
2019-01-24T08:57:39.553Z,32.58
2019-01-24T09:00:12.678Z,32.70
2019-01-24T09:02:42.142Z,33.48
2019-01-24T09:05:11.937Z,34.08
2019-01-24T09:07:41.911Z,37.50
2019-01-24T09:10:16.191Z,36.30
2019-01-24T09:12:48.662Z,33.77
2019-01-24T09:15:19.665Z,34.45
2019-01-24T09:17:54.120Z,32.28
2019-01-24T09:20:24.583Z,35.73
2019-01-24T09:22:56.302Z,33.27
2019-01-24T09:25:25.664Z,35.05
2019-01-24T09:27:55.708Z,35.52
2019-01-24T09:30:26.389Z,34.50
2019-01-24T09:32:56.377Z,34.43
2019-01-24T09:35:28.974Z,34.15
2019-01-24T09:37:58.784Z,35.00
2019-01-24T09:40:28.428Z,33.60
2019-01-24T09:42:58.084Z,34.53
2019-01-24T09:45:29.191Z,35.50
2019-01-24T09:48:00.601Z,33.30
2019-01-24T09:50:30.729Z,36.53
2019-01-24T09:53:00.342Z,34.33
2019-01-24T09:55:29.751Z,35.65
2019-01-24T09:58:00.136Z,36.40
2019-01-24T10:00:31.736Z,34.07
2019-01-24T10:03:01.905Z,35.27
2019-01-24T10:05:31.341Z,35.33
2019-01-24T10:08:01.389Z,34.90
2019-01-24T10:10:31.332Z,34.38
2019-01-24T10:13:02.021Z,34.43
2019-01-24T10:15:31.569Z,33.13
2019-01-24T10:18:01.273Z,32.77
2019-01-24T10:20:30.712Z,34.23
2019-01-24T10:23:00.107Z,33.75
2019-01-24T10:25:32.646Z,35.90
2019-01-24T10:28:02.740Z,33.60
2019-01-24T10:30:33.835Z,37.50
2019-01-24T10:33:03.142Z,34.30
2019-01-24T10:35:33.783Z,34.23
2019-01-24T10:38:06.130Z,36.90
2019-01-24T10:40:36.713Z,34.80
2019-01-24T10:43:07.016Z,36.98
2019-01-24T10:45:36.440Z,36.03
2019-01-24T10:48:06.410Z,36.00
2019-01-24T10:50:36.247Z,38.43
2019-01-24T10:53:06.135Z,35.93
2019-01-24T10:55:35.689Z,34.77
2019-01-24T10:58:07.089Z,33.80
2019-01-24T11:00:43.805Z,34.23
2019-01-24T11:03:17.094Z,35.75
2019-01-24T11:05:47.553Z,33.63
2019-01-24T11:08:17.481Z,33.00
2019-01-24T11:10:48.149Z,33.30
2019-01-24T11:13:18.661Z,32.70
2019-01-24T11:15:48.409Z,32.37
2019-01-24T11:18:23.910Z,33.55
2019-01-24T11:20:55.255Z,31.03
2019-01-24T11:23:24.657Z,30.00
2019-01-24T11:25:56.673Z,30.83
2019-01-24T11:28:29.225Z,30.17
2019-01-24T11:30:59.684Z,32.30
2019-01-24T11:33:31.361Z,32.60
2019-01-24T11:36:01.103Z,31.00
2019-01-24T11:38:31.355Z,31.60
2019-01-24T11:41:01.285Z,28.60
2019-01-24T11:43:34.746Z,25.30
2019-01-24T11:46:04.975Z,28.30
2019-01-24T11:48:37.763Z,26.90
2019-01-24T11:51:09.984Z,28.83
2019-01-24T11:53:39.541Z,28.10
2019-01-24T11:56:09.522Z,32.30
2019-01-24T11:58:38.860Z,28.93
2019-01-24T12:01:09.655Z,29.37
2019-01-24T12:03:41.247Z,29.82
2019-01-24T12:06:10.980Z,30.37
2019-01-24T12:08:40.378Z,30.63
2019-01-24T12:11:10.744Z,31.50
2019-01-24T12:13:40.233Z,29.40
2019-01-24T12:16:10.443Z,27.37
2019-01-24T12:18:43.141Z,29.53
2019-01-24T12:21:16.420Z,25.93
2019-01-24T12:23:46.253Z,27.97
2019-01-24T12:26:17.953Z,27.05
2019-01-24T12:28:47.419Z,25.53
2019-01-24T12:31:18.068Z,27.87
2019-01-24T12:33:47.456Z,25.10
2019-01-24T12:36:17.330Z,27.43
2019-01-24T12:38:46.739Z,25.20
2019-01-24T12:41:19.558Z,24.35
2019-01-24T12:43:50.570Z,24.60
2019-01-24T12:46:22.931Z,23.53
2019-01-24T12:48:53.157Z,22.57
2019-01-24T12:51:24.221Z,23.85
2019-01-24T12:54:00.368Z,26.10
2019-01-24T12:56:29.965Z,22.37
2019-01-24T12:58:59.372Z,23.87
2019-01-24T13:01:31.793Z,24.80
2019-01-24T13:04:01.878Z,24.73
2019-01-24T13:06:33.797Z,26.37
2019-01-24T13:09:07.399Z,23.67
2019-01-24T13:11:37.696Z,25.20
2019-01-24T13:14:07.236Z,25.00
2019-01-24T13:16:36.613Z,25.40
2019-01-24T13:19:06.987Z,24.80
2019-01-24T13:21:37.321Z,24.47
2019-01-24T13:24:06.745Z,23.30
2019-01-24T13:26:36.663Z,25.12
2019-01-24T13:29:06.267Z,25.00
2019-01-24T13:31:35.645Z,24.53
2019-01-24T13:34:05.122Z,27.87
2019-01-24T13:36:35.811Z,23.73
2019-01-24T13:39:10.458Z,26.50
2019-01-24T13:41:42.621Z,25.90
2019-01-24T13:44:12.480Z,27.07
2019-01-24T13:46:43.179Z,26.07
2019-01-24T13:49:14.637Z,27.37
2019-01-24T13:51:44.880Z,25.50
2019-01-24T13:54:15.836Z,23.47
2019-01-24T13:56:46.402Z,25.50
2019-01-24T13:59:17.718Z,24.77
2019-01-24T14:01:47.598Z,26.25
2019-01-24T14:04:24.799Z,25.15
2019-01-24T14:06:54.241Z,24.30
2019-01-24T14:09:24.286Z,26.03
2019-01-24T14:11:54.067Z,25.80
2019-01-24T14:14:25.008Z,24.47
2019-01-24T14:16:56.633Z,25.83
2019-01-24T14:19:26.313Z,26.20
2019-01-24T14:21:56.702Z,26.93
2019-01-24T14:24:26.967Z,25.87
2019-01-24T14:26:57.322Z,26.07
2019-01-24T14:29:27.700Z,26.43
2019-01-24T14:31:57.172Z,26.45
2019-01-24T14:34:26.552Z,24.60
2019-01-24T14:36:57.389Z,24.00
2019-01-24T14:39:28.987Z,26.37
2019-01-24T14:41:59.146Z,24.87
2019-01-24T14:44:28.913Z,25.77
2019-01-24T14:47:00.336Z,23.33
2019-01-24T14:49:32.174Z,23.70
2019-01-24T14:52:02.120Z,23.17
2019-01-24T14:54:31.560Z,23.80
2019-01-24T14:57:01.219Z,24.43
2019-01-24T14:59:32.042Z,23.83
2019-01-24T15:02:02.787Z,24.23
2019-01-24T15:04:32.819Z,24.10
2019-01-24T15:07:02.228Z,23.23
2019-01-24T15:09:31.907Z,23.87
2019-01-24T15:12:06.532Z,26.80
2019-01-24T15:14:37.068Z,25.07
2019-01-24T15:17:06.435Z,23.83
2019-01-24T15:19:36.428Z,24.10
2019-01-24T15:22:06.174Z,25.23
2019-01-24T15:24:35.589Z,24.43
2019-01-24T15:27:05.313Z,24.55
2019-01-24T15:29:36.258Z,24.07
2019-01-24T15:32:06.091Z,25.07
2019-01-24T15:34:36.188Z,24.40
2019-01-24T15:37:07.392Z,26.10
2019-01-24T15:39:37.575Z,25.70
2019-01-24T15:42:07.977Z,26.73
2019-01-24T15:44:37.364Z,25.70
2019-01-24T15:47:06.769Z,27.33
2019-01-24T15:49:36.161Z,28.10
2019-01-24T15:52:05.685Z,28.30
2019-01-24T15:54:35.095Z,26.07
2019-01-24T15:57:04.594Z,42.43
2019-01-24T15:59:34.176Z,27.53
2019-01-24T16:02:03.561Z,27.53
2019-01-24T16:04:32.973Z,26.67
2019-01-24T16:07:05.741Z,28.07
2019-01-24T16:09:35.125Z,26.80
2019-01-24T16:12:04.617Z,27.70
2019-01-24T16:14:34.025Z,28.80
2019-01-24T16:17:04.076Z,26.23
2019-01-24T16:19:33.453Z,25.53
2019-01-24T16:22:04.237Z,26.83
2019-01-24T16:24:34.684Z,29.20
2019-01-24T16:27:04.247Z,27.35
2019-01-24T16:29:36.210Z,30.37
2019-01-24T16:32:07.512Z,29.47
2019-01-24T16:34:36.932Z,29.17
2019-01-24T16:37:07.770Z,27.60
2019-01-24T16:39:38.922Z,31.27
2019-01-24T16:42:08.496Z,26.93
2019-01-24T16:44:41.458Z,27.20
2019-01-24T16:47:11.538Z,27.90
2019-01-24T16:49:40.897Z,28.33
2019-01-24T16:52:10.864Z,25.73
2019-01-24T16:54:40.675Z,28.87
2019-01-24T16:57:11.206Z,29.30
2019-01-24T16:59:40.860Z,29.07
2019-01-24T17:02:12.365Z,28.63
2019-01-24T17:04:41.753Z,26.70
2019-01-24T17:07:11.726Z,28.83
2019-01-24T17:09:41.549Z,29.37
2019-01-24T17:12:11.612Z,29.97
2019-01-24T17:14:44.045Z,25.90
2019-01-24T17:17:13.729Z,28.57
2019-01-24T17:19:43.480Z,26.25
2019-01-24T17:22:13.233Z,27.20
2019-01-24T17:24:42.640Z,28.30
2019-01-24T17:27:12.098Z,30.20
2019-01-24T17:29:41.531Z,31.00
2019-01-24T17:32:10.932Z,31.87
2019-01-24T17:34:42.777Z,33.00
2019-01-24T17:37:13.437Z,35.40
2019-01-24T17:39:43.099Z,36.23
2019-01-24T17:42:12.499Z,36.40
2019-01-24T17:44:42.805Z,34.93
2019-01-24T17:47:12.409Z,38.10
2019-01-24T17:49:41.817Z,37.50
2019-01-24T17:52:11.381Z,36.50
2019-01-24T17:54:41.283Z,34.80
2019-01-24T17:57:10.705Z,36.77
2019-01-24T17:59:40.568Z,36.80
2019-01-24T18:02:10.656Z,39.42
2019-01-24T18:04:40.061Z,39.27
2019-01-24T18:07:09.505Z,40.50
2019-01-24T18:09:39.389Z,39.67
2019-01-24T18:12:13.992Z,39.10
2019-01-24T18:14:44.781Z,39.00
2019-01-24T18:17:14.817Z,40.75
2019-01-24T18:19:44.220Z,39.20
2019-01-24T18:22:16.697Z,41.00
2019-01-24T18:24:46.408Z,40.15
2019-01-24T18:27:16.401Z,41.15
2019-01-24T18:29:47.024Z,43.10
2019-01-24T18:32:17.917Z,42.70
2019-01-24T18:34:49.865Z,46.87
2019-01-24T18:37:39.844Z,48.20
2019-01-24T18:40:14.468Z,44.23
2019-01-24T18:42:45.529Z,46.77
2019-01-24T18:45:19.324Z,45.58
2019-01-24T18:47:48.946Z,43.50
2019-01-24T18:50:21.001Z,51.40
2019-01-24T18:52:50.734Z,47.87
2019-01-24T18:55:20.345Z,50.00
2019-01-24T18:57:49.772Z,56.47
2019-01-24T19:00:30.372Z,57.78
2019-01-24T19:03:02.864Z,50.97
2019-01-24T19:05:33.180Z,51.90
2019-01-24T19:08:03.185Z,49.50
2019-01-24T19:10:33.118Z,49.40
2019-01-24T19:13:02.585Z,49.13
2019-01-24T19:15:32.337Z,49.98
2019-01-24T19:18:01.859Z,50.10
2019-01-24T19:20:31.253Z,49.13
2019-01-24T19:23:02.194Z,48.93
2019-01-24T19:25:35.028Z,49.50
2019-01-24T19:28:04.999Z,47.60
2019-01-24T19:30:34.985Z,45.65
2019-01-24T19:33:06.693Z,43.73
2019-01-24T19:35:36.737Z,44.83
2019-01-24T19:38:06.726Z,43.00
2019-01-24T19:40:36.289Z,46.88
2019-01-24T19:43:05.841Z,44.20
2019-01-24T19:45:36.855Z,47.05
2019-01-24T19:48:06.945Z,46.40
2019-01-24T19:50:36.540Z,48.97
2019-01-24T19:53:07.169Z,43.40
2019-01-24T19:55:37.897Z,45.20
2019-01-24T19:58:11.063Z,43.10
2019-01-24T20:00:42.269Z,44.83
2019-01-24T20:03:11.969Z,43.20
2019-01-24T20:05:43.131Z,42.13
2019-01-24T20:08:13.379Z,42.13
2019-01-24T20:10:42.966Z,40.97
2019-01-24T20:13:15.433Z,41.80
2019-01-24T20:15:45.107Z,42.73
2019-01-24T20:18:16.314Z,42.93
2019-01-24T20:20:45.817Z,41.60
2019-01-24T20:23:18.797Z,42.50
2019-01-24T20:25:48.773Z,40.23
2019-01-24T20:28:20.857Z,41.60
2019-01-24T20:30:50.549Z,42.13
2019-01-24T20:33:21.177Z,47.43
2019-01-24T20:35:59.859Z,44.43
2019-01-24T20:38:31.714Z,41.80
2019-01-24T20:41:01.166Z,41.50
2019-01-24T20:43:35.395Z,40.30
2019-01-24T20:46:03.096Z,42.93
2019-01-24T20:48:32.456Z,43.70
2019-01-24T20:51:01.849Z,41.90
2019-01-24T20:53:31.329Z,42.87
2019-01-24T20:56:00.808Z,40.57
2019-01-24T20:58:30.257Z,42.50
2019-01-24T21:00:59.913Z,42.30
2019-01-24T21:03:29.512Z,42.90
2019-01-24T21:05:59.165Z,42.90
2019-01-24T21:08:28.940Z,41.63
2019-01-24T21:10:59.963Z,39.63
2019-01-24T21:13:29.573Z,39.07
2019-01-24T21:16:00.164Z,40.73
2019-01-24T21:18:29.541Z,41.30
2019-01-24T21:20:59.307Z,41.73
2019-01-24T21:23:28.739Z,40.08
2019-01-24T21:25:58.384Z,42.23
2019-01-24T21:28:30.543Z,40.77
2019-01-24T21:31:00.409Z,41.57
2019-01-24T21:33:31.577Z,41.70
2019-01-24T21:36:00.977Z,44.47
2019-01-24T21:38:31.199Z,43.30
2019-01-24T21:41:01.386Z,42.43
2019-01-24T21:43:30.837Z,43.17
2019-01-24T21:46:00.426Z,41.53
2019-01-24T21:48:30.201Z,41.10
2019-01-24T21:50:59.611Z,43.50
2019-01-24T21:53:37.027Z,40.38
2019-01-24T21:56:06.416Z,39.77
2019-01-24T21:58:35.826Z,40.87
2019-01-24T22:01:05.873Z,39.05
2019-01-24T22:03:35.288Z,41.77
2019-01-24T22:06:04.764Z,40.57
2019-01-24T22:08:34.205Z,39.70
2019-01-24T22:11:03.655Z,41.60
2019-01-24T22:13:33.126Z,41.20
2019-01-24T22:16:03.046Z,41.13
2019-01-24T22:18:32.436Z,40.60
2019-01-24T22:21:01.845Z,39.60
2019-01-24T22:23:32.350Z,41.10
2019-01-24T22:26:05.430Z,42.20
2019-01-24T22:28:34.865Z,40.63
2019-01-24T22:31:04.565Z,39.10
2019-01-24T22:33:34.445Z,39.77
2019-01-24T22:36:03.898Z,39.90
2019-01-24T22:38:34.552Z,40.20
2019-01-24T22:41:03.981Z,38.73
2019-01-24T22:43:34.462Z,40.47
2019-01-24T22:46:03.859Z,38.93
2019-01-24T22:48:33.257Z,40.53
2019-01-24T22:51:02.660Z,39.83
2019-01-24T22:53:33.076Z,37.90
2019-01-24T22:56:03.088Z,37.10
2019-01-24T22:58:32.404Z,36.00
2019-01-24T23:01:29.572Z,38.43
2019-01-24T23:04:15.523Z,36.03
2019-01-24T23:06:44.940Z,38.13
2019-01-24T23:09:15.276Z,37.43
2019-01-24T23:11:44.825Z,36.67
2019-01-24T23:14:14.465Z,38.40
2019-01-24T23:16:43.985Z,39.20
2019-01-24T23:19:13.394Z,38.97
2019-01-24T23:21:42.868Z,39.00
2019-01-24T23:24:13.060Z,39.93
2019-01-24T23:26:42.422Z,41.10
2019-01-24T23:29:12.661Z,40.07
2019-01-24T23:31:42.707Z,39.18
2019-01-24T23:34:18.408Z,38.30
2019-01-24T23:36:51.766Z,42.27
2019-01-24T23:39:21.992Z,41.00
2019-01-24T23:41:51.352Z,42.17
2019-01-24T23:44:21.469Z,40.10
2019-01-24T23:46:50.856Z,40.57
2019-01-24T23:49:20.261Z,41.92
2019-01-24T23:51:49.709Z,42.40
2019-01-24T23:54:19.101Z,40.88
2019-01-24T23:56:49.520Z,43.37
2019-01-24T23:59:20.162Z,44.57
